sensor_id;sensor_type;location;lat;lon;timestamp;P1;durP1;ratioP1;P2;durP2;ratioP2
46713;SDS011;32445;51.376;10.874;2023-08-31T00:03:09;2.27;;;1.10;;
46713;SDS011;32445;51.376;10.874;2023-08-31T00:08:10;1.77;;;0.93;;
46713;SDS011;32445;51.376;10.874;2023-08-31T00:13:13;4.15;;;1.10;;
46713;SDS011;32445;51.376;10.874;2023-08-31T00:18:14;2.03;;;1.30;;
46713;SDS011;32445;51.376;10.874;2023-08-31T00:23:16;1.65;;;1.00;;
46713;SDS011;32445;51.376;10.874;2023-08-31T00:28:16;1.67;;;1.00;;
46713;SDS011;32445;51.376;10.874;2023-08-31T00:33:18;3.30;;;1.17;;
46713;SDS011;32445;51.376;10.874;2023-08-31T00:38:18;1.80;;;1.30;;
46713;SDS011;32445;51.376;10.874;2023-08-31T00:43:19;1.52;;;1.00;;
46713;SDS011;32445;51.376;10.874;2023-08-31T00:48:20;1.80;;;1.20;;
46713;SDS011;32445;51.376;10.874;2023-08-31T00:53:20;1.93;;;1.20;;
46713;SDS011;32445;51.376;10.874;2023-08-31T00:58:21;5.07;;;2.63;;
46713;SDS011;32445;51.376;10.874;2023-08-31T01:03:40;5.57;;;1.50;;
46713;SDS011;32445;51.376;10.874;2023-08-31T01:14:29;2.83;;;1.38;;
46713;SDS011;32445;51.376;10.874;2023-08-31T01:19:49;3.78;;;1.60;;
46713;SDS011;32445;51.376;10.874;2023-08-31T01:24:51;5.03;;;1.60;;
46713;SDS011;32445;51.376;10.874;2023-08-31T01:29:54;2.72;;;1.20;;
46713;SDS011;32445;51.376;10.874;2023-08-31T01:34:54;2.13;;;1.30;;
46713;SDS011;32445;51.376;10.874;2023-08-31T01:39:58;2.35;;;1.70;;
46713;SDS011;32445;51.376;10.874;2023-08-31T01:45:06;2.88;;;2.00;;
46713;SDS011;32445;51.376;10.874;2023-08-31T01:50:08;3.13;;;2.00;;
46713;SDS011;32445;51.376;10.874;2023-08-31T01:55:09;7.30;;;2.65;;
46713;SDS011;32445;51.376;10.874;2023-08-31T02:00:10;6.03;;;2.10;;
46713;SDS011;32445;51.376;10.874;2023-08-31T02:05:10;3.22;;;1.85;;
46713;SDS011;32445;51.376;10.874;2023-08-31T02:10:11;4.17;;;2.10;;
46713;SDS011;32445;51.376;10.874;2023-08-31T02:15:11;2.30;;;1.67;;
46713;SDS011;32445;51.376;10.874;2023-08-31T02:20:12;5.77;;;2.40;;
46713;SDS011;32445;51.376;10.874;2023-08-31T02:25:14;3.17;;;1.98;;
46713;SDS011;32445;51.376;10.874;2023-08-31T02:30:16;3.83;;;2.38;;
46713;SDS011;32445;51.376;10.874;2023-08-31T02:35:16;4.77;;;2.50;;
46713;SDS011;32445;51.376;10.874;2023-08-31T02:40:17;5.37;;;2.13;;
46713;SDS011;32445;51.376;10.874;2023-08-31T02:45:17;4.33;;;2.23;;
46713;SDS011;32445;51.376;10.874;2023-08-31T02:50:18;3.35;;;2.10;;
46713;SDS011;32445;51.376;10.874;2023-08-31T02:55:18;4.43;;;2.70;;
46713;SDS011;32445;51.376;10.874;2023-08-31T03:00:19;4.10;;;2.15;;
46713;SDS011;32445;51.376;10.874;2023-08-31T03:05:23;4.53;;;2.67;;
46713;SDS011;32445;51.376;10.874;2023-08-31T03:10:23;7.47;;;2.50;;
46713;SDS011;32445;51.376;10.874;2023-08-31T03:15:24;6.93;;;3.07;;
46713;SDS011;32445;51.376;10.874;2023-08-31T03:20:24;7.90;;;3.87;;
46713;SDS011;32445;51.376;10.874;2023-08-31T03:25:24;5.03;;;2.57;;
46713;SDS011;32445;51.376;10.874;2023-08-31T03:30:27;7.28;;;3.00;;
46713;SDS011;32445;51.376;10.874;2023-08-31T03:35:28;4.87;;;2.43;;
46713;SDS011;32445;51.376;10.874;2023-08-31T03:40:28;4.68;;;2.90;;
46713;SDS011;32445;51.376;10.874;2023-08-31T03:45:29;4.77;;;3.00;;
46713;SDS011;32445;51.376;10.874;2023-08-31T03:50:29;6.40;;;3.20;;
46713;SDS011;32445;51.376;10.874;2023-08-31T03:55:29;5.67;;;3.33;;
46713;SDS011;32445;51.376;10.874;2023-08-31T04:00:30;5.43;;;3.33;;
46713;SDS011;32445;51.376;10.874;2023-08-31T04:05:33;5.10;;;2.93;;
46713;SDS011;32445;51.376;10.874;2023-08-31T04:10:34;6.28;;;3.53;;
46713;SDS011;32445;51.376;10.874;2023-08-31T04:15:35;7.40;;;4.20;;
46713;SDS011;32445;51.376;10.874;2023-08-31T04:20:35;7.40;;;3.87;;
46713;SDS011;32445;51.376;10.874;2023-08-31T04:25:35;7.03;;;4.23;;
46713;SDS011;32445;51.376;10.874;2023-08-31T04:30:36;7.43;;;4.80;;
46713;SDS011;32445;51.376;10.874;2023-08-31T04:35:36;16.00;;;10.20;;
46713;SDS011;32445;51.376;10.874;2023-08-31T04:40:36;7.90;;;5.17;;
46713;SDS011;32445;51.376;10.874;2023-08-31T04:45:37;9.40;;;5.30;;
46713;SDS011;32445;51.376;10.874;2023-08-31T04:50:37;5.83;;;4.20;;
46713;SDS011;32445;51.376;10.874;2023-08-31T04:55:37;10.63;;;4.07;;
46713;SDS011;32445;51.376;10.874;2023-08-31T05:00:38;5.73;;;4.37;;
46713;SDS011;32445;51.376;10.874;2023-08-31T05:05:39;7.20;;;4.35;;
46713;SDS011;32445;51.376;10.874;2023-08-31T05:10:39;9.43;;;5.13;;
46713;SDS011;32445;51.376;10.874;2023-08-31T05:15:40;5.40;;;3.67;;
46713;SDS011;32445;51.376;10.874;2023-08-31T05:20:44;8.27;;;4.50;;
46713;SDS011;32445;51.376;10.874;2023-08-31T05:25:44;6.50;;;4.18;;
46713;SDS011;32445;51.376;10.874;2023-08-31T05:30:48;9.82;;;5.13;;
46713;SDS011;32445;51.376;10.874;2023-08-31T05:35:51;11.65;;;5.43;;
46713;SDS011;32445;51.376;10.874;2023-08-31T05:40:51;8.88;;;5.53;;
46713;SDS011;32445;51.376;10.874;2023-08-31T05:45:51;7.30;;;4.85;;
46713;SDS011;32445;51.376;10.874;2023-08-31T05:50:52;12.60;;;6.00;;
46713;SDS011;32445;51.376;10.874;2023-08-31T05:55:54;9.32;;;6.07;;
46713;SDS011;32445;51.376;10.874;2023-08-31T06:00:55;8.50;;;6.10;;
46713;SDS011;32445;51.376;10.874;2023-08-31T06:05:56;11.13;;;5.03;;
46713;SDS011;32445;51.376;10.874;2023-08-31T06:10:56;8.73;;;5.72;;
46713;SDS011;32445;51.376;10.874;2023-08-31T06:15:57;11.50;;;6.73;;
46713;SDS011;32445;51.376;10.874;2023-08-31T06:20:59;8.60;;;5.72;;
46713;SDS011;32445;51.376;10.874;2023-08-31T06:26:00;10.67;;;6.10;;
46713;SDS011;32445;51.376;10.874;2023-08-31T06:31:00;8.23;;;5.80;;
46713;SDS011;32445;51.376;10.874;2023-08-31T06:36:00;11.77;;;6.50;;
46713;SDS011;32445;51.376;10.874;2023-08-31T06:41:01;11.40;;;6.67;;
46713;SDS011;32445;51.376;10.874;2023-08-31T06:46:02;11.57;;;6.07;;
46713;SDS011;32445;51.376;10.874;2023-08-31T06:51:03;10.87;;;5.97;;
46713;SDS011;32445;51.376;10.874;2023-08-31T06:56:04;9.88;;;5.38;;
46713;SDS011;32445;51.376;10.874;2023-08-31T07:01:07;8.10;;;4.63;;
46713;SDS011;32445;51.376;10.874;2023-08-31T07:06:07;8.88;;;5.75;;
46713;SDS011;32445;51.376;10.874;2023-08-31T07:11:08;8.10;;;5.73;;
46713;SDS011;32445;51.376;10.874;2023-08-31T07:16:08;9.83;;;5.33;;
46713;SDS011;32445;51.376;10.874;2023-08-31T07:21:08;11.13;;;6.37;;
46713;SDS011;32445;51.376;10.874;2023-08-31T07:26:09;5.40;;;4.23;;
46713;SDS011;32445;51.376;10.874;2023-08-31T07:31:09;10.37;;;6.50;;
46713;SDS011;32445;51.376;10.874;2023-08-31T07:36:10;12.25;;;7.13;;
46713;SDS011;32445;51.376;10.874;2023-08-31T07:41:11;12.02;;;7.45;;
46713;SDS011;32445;51.376;10.874;2023-08-31T07:46:11;15.27;;;9.57;;
46713;SDS011;32445;51.376;10.874;2023-08-31T07:51:11;20.00;;;9.60;;
46713;SDS011;32445;51.376;10.874;2023-08-31T07:56:12;9.83;;;6.93;;
46713;SDS011;32445;51.376;10.874;2023-08-31T08:01:12;13.27;;;8.77;;
46713;SDS011;32445;51.376;10.874;2023-08-31T08:06:13;12.07;;;7.50;;
46713;SDS011;32445;51.376;10.874;2023-08-31T08:11:14;8.15;;;6.63;;
46713;SDS011;32445;51.376;10.874;2023-08-31T08:16:14;8.27;;;6.03;;
46713;SDS011;32445;51.376;10.874;2023-08-31T08:21:14;9.20;;;5.93;;
46713;SDS011;32445;51.376;10.874;2023-08-31T08:26:15;7.43;;;4.93;;
46713;SDS011;32445;51.376;10.874;2023-08-31T08:31:15;8.50;;;4.43;;
46713;SDS011;32445;51.376;10.874;2023-08-31T08:36:16;8.47;;;4.17;;
46713;SDS011;32445;51.376;10.874;2023-08-31T08:41:17;6.77;;;4.03;;
46713;SDS011;32445;51.376;10.874;2023-08-31T08:46:22;5.75;;;4.22;;
46713;SDS011;32445;51.376;10.874;2023-08-31T08:51:23;4.57;;;2.95;;
46713;SDS011;32445;51.376;10.874;2023-08-31T08:56:24;5.07;;;2.90;;
46713;SDS011;32445;51.376;10.874;2023-08-31T09:01:24;3.43;;;2.37;;
46713;SDS011;32445;51.376;10.874;2023-08-31T09:06:25;6.63;;;3.38;;
46713;SDS011;32445;51.376;10.874;2023-08-31T09:11:27;7.47;;;2.75;;
46713;SDS011;32445;51.376;10.874;2023-08-31T09:16:29;5.28;;;2.78;;
46713;SDS011;32445;51.376;10.874;2023-08-31T09:21:36;5.65;;;2.42;;
46713;SDS011;32445;51.376;10.874;2023-08-31T09:26:38;4.50;;;2.25;;
46713;SDS011;32445;51.376;10.874;2023-08-31T09:31:42;6.05;;;2.20;;
46713;SDS011;32445;51.376;10.874;2023-08-31T09:36:44;5.00;;;2.10;;
46713;SDS011;32445;51.376;10.874;2023-08-31T09:41:54;3.17;;;1.93;;
46713;SDS011;32445;51.376;10.874;2023-08-31T09:46:55;1.75;;;1.38;;
46713;SDS011;32445;51.376;10.874;2023-08-31T09:51:56;2.45;;;1.30;;
46713;SDS011;32445;51.376;10.874;2023-08-31T09:57:02;2.15;;;1.38;;
46713;SDS011;32445;51.376;10.874;2023-08-31T10:02:03;3.28;;;1.60;;
46713;SDS011;32445;51.376;10.874;2023-08-31T10:07:04;3.47;;;1.60;;
46713;SDS011;32445;51.376;10.874;2023-08-31T10:12:05;2.45;;;1.58;;
46713;SDS011;32445;51.376;10.874;2023-08-31T10:17:06;2.15;;;1.30;;
46713;SDS011;32445;51.376;10.874;2023-08-31T10:22:07;3.92;;;1.77;;
46713;SDS011;32445;51.376;10.874;2023-08-31T10:27:20;2.33;;;1.23;;
46713;SDS011;32445;51.376;10.874;2023-08-31T10:32:20;4.20;;;1.73;;
46713;SDS011;32445;51.376;10.874;2023-08-31T10:37:22;2.72;;;1.67;;
46713;SDS011;32445;51.376;10.874;2023-08-31T10:42:23;11.90;;;3.10;;
46713;SDS011;32445;51.376;10.874;2023-08-31T10:47:35;4.32;;;1.83;;
46713;SDS011;32445;51.376;10.874;2023-08-31T10:52:42;3.97;;;2.08;;
46713;SDS011;32445;51.376;10.874;2023-08-31T10:57:44;3.33;;;1.80;;
46713;SDS011;32445;51.376;10.874;2023-08-31T11:02:46;3.97;;;1.77;;
46713;SDS011;32445;51.376;10.874;2023-08-31T11:07:47;3.05;;;1.70;;
46713;SDS011;32445;51.376;10.874;2023-08-31T11:12:50;2.30;;;1.50;;
46713;SDS011;32445;51.376;10.874;2023-08-31T11:17:54;2.95;;;1.40;;
46713;SDS011;32445;51.376;10.874;2023-08-31T11:22:55;3.03;;;1.75;;
46713;SDS011;32445;51.376;10.874;2023-08-31T11:28:03;3.33;;;1.50;;
46713;SDS011;32445;51.376;10.874;2023-08-31T11:33:06;2.58;;;1.60;;
46713;SDS011;32445;51.376;10.874;2023-08-31T11:38:08;4.25;;;1.80;;
46713;SDS011;32445;51.376;10.874;2023-08-31T11:43:08;2.85;;;1.50;;
46713;SDS011;32445;51.376;10.874;2023-08-31T11:48:09;3.03;;;1.58;;
46713;SDS011;32445;51.376;10.874;2023-08-31T11:53:09;2.22;;;1.45;;
46713;SDS011;32445;51.376;10.874;2023-08-31T11:58:10;2.83;;;1.42;;
46713;SDS011;32445;51.376;10.874;2023-08-31T12:03:10;2.90;;;1.60;;
46713;SDS011;32445;51.376;10.874;2023-08-31T12:08:11;3.03;;;1.40;;
46713;SDS011;32445;51.376;10.874;2023-08-31T12:13:11;4.17;;;1.83;;
46713;SDS011;32445;51.376;10.874;2023-08-31T12:18:15;3.97;;;1.42;;
46713;SDS011;32445;51.376;10.874;2023-08-31T12:23:15;5.00;;;2.10;;
46713;SDS011;32445;51.376;10.874;2023-08-31T12:28:16;2.67;;;1.43;;
46713;SDS011;32445;51.376;10.874;2023-08-31T12:33:20;3.03;;;1.80;;
46713;SDS011;32445;51.376;10.874;2023-08-31T12:38:21;1.93;;;1.50;;
46713;SDS011;32445;51.376;10.874;2023-08-31T12:43:22;2.45;;;1.60;;
46713;SDS011;32445;51.376;10.874;2023-08-31T12:48:22;2.40;;;1.20;;
46713;SDS011;32445;51.376;10.874;2023-08-31T12:53:23;4.30;;;1.20;;
46713;SDS011;32445;51.376;10.874;2023-08-31T12:58:23;4.70;;;1.30;;
46713;SDS011;32445;51.376;10.874;2023-08-31T13:03:24;2.87;;;1.20;;
46713;SDS011;32445;51.376;10.874;2023-08-31T13:08:24;1.75;;;0.95;;
46713;SDS011;32445;51.376;10.874;2023-08-31T13:13:25;2.27;;;1.10;;
46713;SDS011;32445;51.376;10.874;2023-08-31T13:18:25;4.67;;;1.10;;
46713;SDS011;32445;51.376;10.874;2023-08-31T13:23:25;2.80;;;1.40;;
46713;SDS011;32445;51.376;10.874;2023-08-31T13:28:26;3.00;;;1.00;;
46713;SDS011;32445;51.376;10.874;2023-08-31T13:33:26;1.60;;;1.00;;
46713;SDS011;32445;51.376;10.874;2023-08-31T13:38:30;3.47;;;1.40;;
46713;SDS011;32445;51.376;10.874;2023-08-31T13:43:31;3.13;;;1.10;;
46713;SDS011;32445;51.376;10.874;2023-08-31T13:48:31;2.97;;;1.30;;
46713;SDS011;32445;51.376;10.874;2023-08-31T13:53:31;3.77;;;1.63;;
46713;SDS011;32445;51.376;10.874;2023-08-31T13:58:32;2.77;;;1.27;;
46713;SDS011;32445;51.376;10.874;2023-08-31T14:03:32;5.73;;;1.57;;
46713;SDS011;32445;51.376;10.874;2023-08-31T14:08:32;1.83;;;1.20;;
46713;SDS011;32445;51.376;10.874;2023-08-31T14:13:33;2.60;;;1.40;;
46713;SDS011;32445;51.376;10.874;2023-08-31T14:18:33;3.70;;;1.40;;
46713;SDS011;32445;51.376;10.874;2023-08-31T14:23:34;4.73;;;1.50;;
46713;SDS011;32445;51.376;10.874;2023-08-31T14:28:34;4.53;;;1.67;;
46713;SDS011;32445;51.376;10.874;2023-08-31T14:33:35;2.17;;;1.30;;
46713;SDS011;32445;51.376;10.874;2023-08-31T14:38:36;2.45;;;1.58;;
46713;SDS011;32445;51.376;10.874;2023-08-31T14:43:36;3.13;;;1.77;;
46713;SDS011;32445;51.376;10.874;2023-08-31T14:48:37;3.08;;;1.70;;
46713;SDS011;32445;51.376;10.874;2023-08-31T14:53:37;3.07;;;1.67;;
46713;SDS011;32445;51.376;10.874;2023-08-31T14:58:40;2.03;;;1.60;;
46713;SDS011;32445;51.376;10.874;2023-08-31T15:03:40;6.00;;;1.90;;
46713;SDS011;32445;51.376;10.874;2023-08-31T15:08:40;2.20;;;1.40;;
46713;SDS011;32445;51.376;10.874;2023-08-31T15:13:41;3.15;;;1.50;;
46713;SDS011;32445;51.376;10.874;2023-08-31T15:18:42;9.07;;;1.70;;
46713;SDS011;32445;51.376;10.874;2023-08-31T15:23:43;2.67;;;1.60;;
46713;SDS011;32445;51.376;10.874;2023-08-31T15:28:47;4.40;;;1.70;;
46713;SDS011;32445;51.376;10.874;2023-08-31T15:33:47;2.80;;;1.63;;
46713;SDS011;32445;51.376;10.874;2023-08-31T15:38:48;3.20;;;1.40;;
46713;SDS011;32445;51.376;10.874;2023-08-31T15:43:49;5.20;;;1.90;;
46713;SDS011;32445;51.376;10.874;2023-08-31T15:48:50;2.60;;;1.48;;
46713;SDS011;32445;51.376;10.874;2023-08-31T15:53:50;3.37;;;2.33;;
46713;SDS011;32445;51.376;10.874;2023-08-31T15:58:52;3.30;;;1.45;;
46713;SDS011;32445;51.376;10.874;2023-08-31T16:03:52;2.60;;;1.67;;
46713;SDS011;32445;51.376;10.874;2023-08-31T16:08:53;2.27;;;1.50;;
46713;SDS011;32445;51.376;10.874;2023-08-31T16:13:53;2.67;;;1.50;;
46713;SDS011;32445;51.376;10.874;2023-08-31T16:18:53;3.93;;;1.67;;
46713;SDS011;32445;51.376;10.874;2023-08-31T16:23:54;3.03;;;1.60;;
46713;SDS011;32445;51.376;10.874;2023-08-31T16:28:54;3.17;;;1.97;;
46713;SDS011;32445;51.376;10.874;2023-08-31T16:33:55;2.93;;;1.97;;
46713;SDS011;32445;51.376;10.874;2023-08-31T16:38:55;2.33;;;1.60;;
46713;SDS011;32445;51.376;10.874;2023-08-31T16:43:55;5.00;;;1.87;;
46713;SDS011;32445;51.376;10.874;2023-08-31T16:48:56;2.58;;;1.63;;
46713;SDS011;32445;51.376;10.874;2023-08-31T16:53:56;4.13;;;1.70;;
46713;SDS011;32445;51.376;10.874;2023-08-31T16:58:57;3.37;;;1.80;;
46713;SDS011;32445;51.376;10.874;2023-08-31T17:04:00;3.33;;;1.70;;
46713;SDS011;32445;51.376;10.874;2023-08-31T17:09:01;1.95;;;1.50;;
46713;SDS011;32445;51.376;10.874;2023-08-31T17:14:04;4.28;;;1.77;;
46713;SDS011;32445;51.376;10.874;2023-08-31T17:19:06;3.25;;;2.15;;
46713;SDS011;32445;51.376;10.874;2023-08-31T17:24:06;4.07;;;1.48;;
46713;SDS011;32445;51.376;10.874;2023-08-31T17:29:07;2.30;;;1.27;;
46713;SDS011;32445;51.376;10.874;2023-08-31T17:34:07;5.83;;;1.50;;
46713;SDS011;32445;51.376;10.874;2023-08-31T17:39:07;2.93;;;1.20;;
46713;SDS011;32445;51.376;10.874;2023-08-31T17:44:08;1.97;;;1.17;;
46713;SDS011;32445;51.376;10.874;2023-08-31T17:49:08;4.13;;;1.03;;
46713;SDS011;32445;51.376;10.874;2023-08-31T17:54:08;3.30;;;1.00;;
46713;SDS011;32445;51.376;10.874;2023-08-31T17:59:09;1.57;;;0.90;;
46713;SDS011;32445;51.376;10.874;2023-08-31T18:04:14;2.20;;;0.93;;
46713;SDS011;32445;51.376;10.874;2023-08-31T18:09:15;4.60;;;1.50;;
46713;SDS011;32445;51.376;10.874;2023-08-31T18:14:15;2.10;;;1.07;;
46713;SDS011;32445;51.376;10.874;2023-08-31T18:19:15;2.00;;;1.10;;
46713;SDS011;32445;51.376;10.874;2023-08-31T18:24:16;1.83;;;1.13;;
46713;SDS011;32445;51.376;10.874;2023-08-31T18:29:17;2.60;;;1.23;;
46713;SDS011;32445;51.376;10.874;2023-08-31T18:34:18;2.17;;;1.48;;
46713;SDS011;32445;51.376;10.874;2023-08-31T18:39:18;1.40;;;1.07;;
46713;SDS011;32445;51.376;10.874;2023-08-31T18:44:18;2.03;;;1.20;;
46713;SDS011;32445;51.376;10.874;2023-08-31T18:49:19;1.52;;;0.95;;
46713;SDS011;32445;51.376;10.874;2023-08-31T18:54:20;1.67;;;1.10;;
46713;SDS011;32445;51.376;10.874;2023-08-31T18:59:20;2.23;;;1.30;;
46713;SDS011;32445;51.376;10.874;2023-08-31T19:04:20;3.83;;;1.40;;
46713;SDS011;32445;51.376;10.874;2023-08-31T19:09:21;2.77;;;1.23;;
46713;SDS011;32445;51.376;10.874;2023-08-31T19:14:21;2.63;;;1.07;;
46713;SDS011;32445;51.376;10.874;2023-08-31T19:19:22;2.90;;;1.27;;
46713;SDS011;32445;51.376;10.874;2023-08-31T19:24:22;3.23;;;1.20;;
46713;SDS011;32445;51.376;10.874;2023-08-31T19:29:22;5.20;;;1.83;;
46713;SDS011;32445;51.376;10.874;2023-08-31T19:34:24;3.25;;;1.40;;
46713;SDS011;32445;51.376;10.874;2023-08-31T19:39:25;2.80;;;1.70;;
46713;SDS011;32445;51.376;10.874;2023-08-31T19:44:27;4.17;;;1.60;;
46713;SDS011;32445;51.376;10.874;2023-08-31T19:49:28;3.92;;;1.80;;
46713;SDS011;32445;51.376;10.874;2023-08-31T19:54:28;3.47;;;1.63;;
46713;SDS011;32445;51.376;10.874;2023-08-31T19:59:30;3.22;;;1.67;;
46713;SDS011;32445;51.376;10.874;2023-08-31T20:04:30;3.97;;;1.33;;
46713;SDS011;32445;51.376;10.874;2023-08-31T20:09:30;2.43;;;1.50;;
46713;SDS011;32445;51.376;10.874;2023-08-31T20:14:31;2.63;;;1.60;;
46713;SDS011;32445;51.376;10.874;2023-08-31T20:19:31;3.73;;;1.80;;
46713;SDS011;32445;51.376;10.874;2023-08-31T20:24:32;3.83;;;1.70;;
46713;SDS011;32445;51.376;10.874;2023-08-31T20:29:32;2.70;;;1.60;;
46713;SDS011;32445;51.376;10.874;2023-08-31T20:34:33;2.97;;;1.55;;
46713;SDS011;32445;51.376;10.874;2023-08-31T20:39:33;3.13;;;1.70;;
46713;SDS011;32445;51.376;10.874;2023-08-31T20:44:37;3.13;;;1.73;;
46713;SDS011;32445;51.376;10.874;2023-08-31T20:49:41;6.70;;;1.80;;
46713;SDS011;32445;51.376;10.874;2023-08-31T20:54:41;2.97;;;1.73;;
46713;SDS011;32445;51.376;10.874;2023-08-31T20:59:41;3.63;;;2.03;;
46713;SDS011;32445;51.376;10.874;2023-08-31T21:04:42;2.80;;;1.80;;
46713;SDS011;32445;51.376;10.874;2023-08-31T21:09:42;4.53;;;1.90;;
46713;SDS011;32445;51.376;10.874;2023-08-31T21:14:47;4.50;;;2.00;;
46713;SDS011;32445;51.376;10.874;2023-08-31T21:19:47;2.92;;;1.80;;
46713;SDS011;32445;51.376;10.874;2023-08-31T21:24:48;3.10;;;2.23;;
46713;SDS011;32445;51.376;10.874;2023-08-31T21:29:48;3.13;;;1.90;;
46713;SDS011;32445;51.376;10.874;2023-08-31T21:34:48;3.90;;;1.90;;
46713;SDS011;32445;51.376;10.874;2023-08-31T21:39:49;3.93;;;2.13;;
46713;SDS011;32445;51.376;10.874;2023-08-31T21:44:49;2.60;;;1.93;;
46713;SDS011;32445;51.376;10.874;2023-08-31T21:49:49;3.50;;;1.77;;
46713;SDS011;32445;51.376;10.874;2023-08-31T21:54:50;4.23;;;2.10;;
46713;SDS011;32445;51.376;10.874;2023-08-31T21:59:50;2.37;;;1.83;;
46713;SDS011;32445;51.376;10.874;2023-08-31T22:04:50;5.07;;;1.83;;
46713;SDS011;32445;51.376;10.874;2023-08-31T22:09:51;4.23;;;1.83;;
46713;SDS011;32445;51.376;10.874;2023-08-31T22:14:52;2.72;;;1.95;;
46713;SDS011;32445;51.376;10.874;2023-08-31T22:19:52;2.47;;;1.83;;
46713;SDS011;32445;51.376;10.874;2023-08-31T22:24:54;4.88;;;2.10;;
46713;SDS011;32445;51.376;10.874;2023-08-31T22:29:55;3.17;;;1.70;;
46713;SDS011;32445;51.376;10.874;2023-08-31T22:34:55;3.30;;;1.77;;
46713;SDS011;32445;51.376;10.874;2023-08-31T22:39:56;4.80;;;2.10;;
46713;SDS011;32445;51.376;10.874;2023-08-31T22:44:56;2.93;;;2.00;;
46713;SDS011;32445;51.376;10.874;2023-08-31T22:49:56;2.63;;;1.80;;
46713;SDS011;32445;51.376;10.874;2023-08-31T22:54:57;4.33;;;2.17;;
46713;SDS011;32445;51.376;10.874;2023-08-31T22:59:58;3.83;;;2.03;;
46713;SDS011;32445;51.376;10.874;2023-08-31T23:04:58;3.00;;;1.97;;
46713;SDS011;32445;51.376;10.874;2023-08-31T23:09:59;3.33;;;2.20;;
46713;SDS011;32445;51.376;10.874;2023-08-31T23:14:59;3.55;;;2.40;;
46713;SDS011;32445;51.376;10.874;2023-08-31T23:19:59;5.33;;;2.10;;
46713;SDS011;32445;51.376;10.874;2023-08-31T23:25:00;6.27;;;1.90;;
46713;SDS011;32445;51.376;10.874;2023-08-31T23:30:00;3.87;;;2.00;;
46713;SDS011;32445;51.376;10.874;2023-08-31T23:35:01;3.50;;;2.10;;
46713;SDS011;32445;51.376;10.874;2023-08-31T23:40:01;4.13;;;1.80;;
46713;SDS011;32445;51.376;10.874;2023-08-31T23:45:04;3.63;;;2.47;;
46713;SDS011;32445;51.376;10.874;2023-08-31T23:50:05;3.20;;;2.15;;
46713;SDS011;32445;51.376;10.874;2023-08-31T23:55:06;4.10;;;2.03;;
